sensor_id;sensor_type;location;lat;lon;timestamp;temperature;humidity
51884;DHT22;37915;53.254;6.598;2023-06-10T00:01:42;16.60;99.90
51884;DHT22;37915;53.254;6.598;2023-06-10T00:04:08;16.60;99.90
51884;DHT22;37915;53.254;6.598;2023-06-10T00:06:34;16.60;99.90
51884;DHT22;37915;53.254;6.598;2023-06-10T00:09:04;16.60;99.90
51884;DHT22;37915;53.254;6.598;2023-06-10T00:11:34;16.50;99.90
51884;DHT22;37915;53.254;6.598;2023-06-10T00:14:00;16.50;99.90
51884;DHT22;37915;53.254;6.598;2023-06-10T00:16:26;16.50;99.90
51884;DHT22;37915;53.254;6.598;2023-06-10T00:18:51;16.50;99.90
51884;DHT22;37915;53.254;6.598;2023-06-10T00:21:17;16.50;99.90
51884;DHT22;37915;53.254;6.598;2023-06-10T00:23:44;16.40;99.90
51884;DHT22;37915;53.254;6.598;2023-06-10T00:26:10;16.40;99.90
51884;DHT22;37915;53.254;6.598;2023-06-10T00:28:36;16.30;99.90
51884;DHT22;37915;53.254;6.598;2023-06-10T00:31:01;16.30;99.90
51884;DHT22;37915;53.254;6.598;2023-06-10T00:33:28;16.30;99.90
51884;DHT22;37915;53.254;6.598;2023-06-10T00:35:54;16.30;99.90
51884;DHT22;37915;53.254;6.598;2023-06-10T00:38:20;16.20;99.90
51884;DHT22;37915;53.254;6.598;2023-06-10T00:40:45;16.10;99.90
51884;DHT22;37915;53.254;6.598;2023-06-10T00:43:11;16.10;99.90
51884;DHT22;37915;53.254;6.598;2023-06-10T00:45:37;16.10;99.90
51884;DHT22;37915;53.254;6.598;2023-06-10T00:48:04;16.10;99.90
51884;DHT22;37915;53.254;6.598;2023-06-10T00:50:30;16.00;99.90
51884;DHT22;37915;53.254;6.598;2023-06-10T00:52:57;15.90;99.90
51884;DHT22;37915;53.254;6.598;2023-06-10T00:55:24;15.90;99.90
51884;DHT22;37915;53.254;6.598;2023-06-10T00:57:51;15.90;99.90
51884;DHT22;37915;53.254;6.598;2023-06-10T01:00:17;15.90;99.90
51884;DHT22;37915;53.254;6.598;2023-06-10T01:02:43;15.80;99.90
51884;DHT22;37915;53.254;6.598;2023-06-10T01:05:09;15.80;99.90
51884;DHT22;37915;53.254;6.598;2023-06-10T01:08:01;15.70;99.90
51884;DHT22;37915;53.254;6.598;2023-06-10T01:10:36;15.70;99.90
51884;DHT22;37915;53.254;6.598;2023-06-10T01:13:06;15.70;99.90
51884;DHT22;37915;53.254;6.598;2023-06-10T01:15:34;15.60;99.90
51884;DHT22;37915;53.254;6.598;2023-06-10T01:18:02;15.50;99.90
51884;DHT22;37915;53.254;6.598;2023-06-10T01:20:29;15.50;99.90
51884;DHT22;37915;53.254;6.598;2023-06-10T01:22:58;15.40;99.90
51884;DHT22;37915;53.254;6.598;2023-06-10T01:25:25;15.40;99.90
51884;DHT22;37915;53.254;6.598;2023-06-10T01:31:07;15.30;99.90
51884;DHT22;37915;53.254;6.598;2023-06-10T01:33:41;15.30;99.90
51884;DHT22;37915;53.254;6.598;2023-06-10T01:36:08;15.20;99.90
51884;DHT22;37915;53.254;6.598;2023-06-10T01:38:42;15.20;99.90
51884;DHT22;37915;53.254;6.598;2023-06-10T01:41:10;15.10;99.90
51884;DHT22;37915;53.254;6.598;2023-06-10T01:43:38;15.10;99.90
51884;DHT22;37915;53.254;6.598;2023-06-10T01:46:04;15.10;99.90
51884;DHT22;37915;53.254;6.598;2023-06-10T01:48:30;15.00;99.90
51884;DHT22;37915;53.254;6.598;2023-06-10T01:50:55;14.90;99.90
51884;DHT22;37915;53.254;6.598;2023-06-10T01:53:22;14.90;99.90
51884;DHT22;37915;53.254;6.598;2023-06-10T01:55:48;14.80;99.90
51884;DHT22;37915;53.254;6.598;2023-06-10T01:58:14;14.70;99.90
51884;DHT22;37915;53.254;6.598;2023-06-10T02:00:40;14.70;99.90
51884;DHT22;37915;53.254;6.598;2023-06-10T02:03:05;14.60;99.90
51884;DHT22;37915;53.254;6.598;2023-06-10T02:05:31;14.50;99.90
51884;DHT22;37915;53.254;6.598;2023-06-10T02:07:57;14.50;99.90
51884;DHT22;37915;53.254;6.598;2023-06-10T02:10:23;14.40;99.90
51884;DHT22;37915;53.254;6.598;2023-06-10T02:12:49;14.30;99.90
51884;DHT22;37915;53.254;6.598;2023-06-10T02:15:15;14.30;99.90
51884;DHT22;37915;53.254;6.598;2023-06-10T02:17:41;14.30;99.90
51884;DHT22;37915;53.254;6.598;2023-06-10T02:20:07;14.20;99.90
51884;DHT22;37915;53.254;6.598;2023-06-10T02:22:36;14.20;99.90
51884;DHT22;37915;53.254;6.598;2023-06-10T02:25:02;14.10;99.90
51884;DHT22;37915;53.254;6.598;2023-06-10T02:27:29;14.10;99.90
51884;DHT22;37915;53.254;6.598;2023-06-10T02:29:56;14.00;99.90
51884;DHT22;37915;53.254;6.598;2023-06-10T02:32:22;14.00;99.90
51884;DHT22;37915;53.254;6.598;2023-06-10T02:34:48;13.90;99.90
51884;DHT22;37915;53.254;6.598;2023-06-10T02:37:15;13.80;99.90
51884;DHT22;37915;53.254;6.598;2023-06-10T02:39:41;13.80;99.90
51884;DHT22;37915;53.254;6.598;2023-06-10T02:42:07;13.70;99.90
51884;DHT22;37915;53.254;6.598;2023-06-10T02:44:33;13.70;99.90
51884;DHT22;37915;53.254;6.598;2023-06-10T02:46:58;13.60;99.90
51884;DHT22;37915;53.254;6.598;2023-06-10T02:49:24;13.50;99.90
51884;DHT22;37915;53.254;6.598;2023-06-10T02:51:53;13.50;99.90
51884;DHT22;37915;53.254;6.598;2023-06-10T02:54:25;13.40;99.90
51884;DHT22;37915;53.254;6.598;2023-06-10T02:56:51;13.40;99.90
51884;DHT22;37915;53.254;6.598;2023-06-10T02:59:18;13.30;99.90
51884;DHT22;37915;53.254;6.598;2023-06-10T03:01:45;13.30;99.90
51884;DHT22;37915;53.254;6.598;2023-06-10T03:04:11;13.30;99.90
51884;DHT22;37915;53.254;6.598;2023-06-10T03:06:39;13.30;99.90
51884;DHT22;37915;53.254;6.598;2023-06-10T03:09:06;13.30;99.90
51884;DHT22;37915;53.254;6.598;2023-06-10T03:11:35;13.30;99.90
51884;DHT22;37915;53.254;6.598;2023-06-10T03:14:01;13.30;99.90
51884;DHT22;37915;53.254;6.598;2023-06-10T03:16:27;13.20;99.90
51884;DHT22;37915;53.254;6.598;2023-06-10T03:18:53;13.20;99.90
51884;DHT22;37915;53.254;6.598;2023-06-10T03:21:18;13.10;99.90
51884;DHT22;37915;53.254;6.598;2023-06-10T03:23:45;13.20;99.90
51884;DHT22;37915;53.254;6.598;2023-06-10T03:26:11;13.20;99.90
51884;DHT22;37915;53.254;6.598;2023-06-10T03:28:39;13.20;99.90
51884;DHT22;37915;53.254;6.598;2023-06-10T03:31:05;13.20;99.90
51884;DHT22;37915;53.254;6.598;2023-06-10T03:33:31;13.20;99.90
51884;DHT22;37915;53.254;6.598;2023-06-10T03:35:56;13.20;99.90
51884;DHT22;37915;53.254;6.598;2023-06-10T03:38:22;13.20;99.90
51884;DHT22;37915;53.254;6.598;2023-06-10T03:40:48;13.10;99.90
51884;DHT22;37915;53.254;6.598;2023-06-10T03:43:13;13.10;99.90
51884;DHT22;37915;53.254;6.598;2023-06-10T03:45:39;13.10;99.90
51884;DHT22;37915;53.254;6.598;2023-06-10T03:48:06;13.00;99.90
51884;DHT22;37915;53.254;6.598;2023-06-10T03:50:33;13.10;99.90
51884;DHT22;37915;53.254;6.598;2023-06-10T03:52:59;13.10;99.90
51884;DHT22;37915;53.254;6.598;2023-06-10T03:55:25;13.20;99.90
51884;DHT22;37915;53.254;6.598;2023-06-10T03:57:51;13.20;99.90
51884;DHT22;37915;53.254;6.598;2023-06-10T04:00:17;13.20;99.90
51884;DHT22;37915;53.254;6.598;2023-06-10T04:02:43;13.30;99.90
51884;DHT22;37915;53.254;6.598;2023-06-10T04:05:14;13.30;99.90
51884;DHT22;37915;53.254;6.598;2023-06-10T04:07:40;13.30;99.90
51884;DHT22;37915;53.254;6.598;2023-06-10T04:10:08;13.30;99.90
51884;DHT22;37915;53.254;6.598;2023-06-10T04:12:35;13.20;99.90
51884;DHT22;37915;53.254;6.598;2023-06-10T04:15:01;13.30;99.90
51884;DHT22;37915;53.254;6.598;2023-06-10T04:17:27;13.30;99.90
51884;DHT22;37915;53.254;6.598;2023-06-10T04:19:53;13.30;99.90
51884;DHT22;37915;53.254;6.598;2023-06-10T04:22:20;13.40;99.90
51884;DHT22;37915;53.254;6.598;2023-06-10T04:24:46;13.40;99.90
51884;DHT22;37915;53.254;6.598;2023-06-10T04:27:12;13.50;99.90
51884;DHT22;37915;53.254;6.598;2023-06-10T04:29:37;13.50;99.90
51884;DHT22;37915;53.254;6.598;2023-06-10T04:32:03;13.50;99.90
51884;DHT22;37915;53.254;6.598;2023-06-10T04:34:31;13.60;99.90
51884;DHT22;37915;53.254;6.598;2023-06-10T04:36:56;13.70;99.90
51884;DHT22;37915;53.254;6.598;2023-06-10T04:39:22;13.70;99.90
51884;DHT22;37915;53.254;6.598;2023-06-10T04:41:48;13.80;99.90
51884;DHT22;37915;53.254;6.598;2023-06-10T04:44:14;13.80;99.90
51884;DHT22;37915;53.254;6.598;2023-06-10T04:46:39;13.90;99.90
51884;DHT22;37915;53.254;6.598;2023-06-10T04:49:05;13.90;99.90
51884;DHT22;37915;53.254;6.598;2023-06-10T04:51:31;14.00;99.90
51884;DHT22;37915;53.254;6.598;2023-06-10T04:53:59;14.00;99.90
51884;DHT22;37915;53.254;6.598;2023-06-10T04:56:29;14.10;99.90
51884;DHT22;37915;53.254;6.598;2023-06-10T04:58:56;14.10;99.90
51884;DHT22;37915;53.254;6.598;2023-06-10T05:01:22;14.20;99.90
51884;DHT22;37915;53.254;6.598;2023-06-10T05:03:48;14.30;99.90
51884;DHT22;37915;53.254;6.598;2023-06-10T05:06:14;14.30;99.90
51884;DHT22;37915;53.254;6.598;2023-06-10T05:08:40;14.40;99.90
51884;DHT22;37915;53.254;6.598;2023-06-10T05:11:05;14.40;99.90
51884;DHT22;37915;53.254;6.598;2023-06-10T05:13:32;14.50;99.90
51884;DHT22;37915;53.254;6.598;2023-06-10T05:15:58;14.60;99.90
51884;DHT22;37915;53.254;6.598;2023-06-10T05:18:24;14.60;99.90
51884;DHT22;37915;53.254;6.598;2023-06-10T05:20:49;14.70;99.90
51884;DHT22;37915;53.254;6.598;2023-06-10T05:23:15;14.80;99.90
51884;DHT22;37915;53.254;6.598;2023-06-10T05:25:41;14.90;99.90
51884;DHT22;37915;53.254;6.598;2023-06-10T05:28:07;14.90;99.90
51884;DHT22;37915;53.254;6.598;2023-06-10T05:30:36;15.00;99.90
51884;DHT22;37915;53.254;6.598;2023-06-10T05:33:02;15.00;99.90
51884;DHT22;37915;53.254;6.598;2023-06-10T05:35:28;15.10;99.90
51884;DHT22;37915;53.254;6.598;2023-06-10T05:37:53;15.10;99.90
51884;DHT22;37915;53.254;6.598;2023-06-10T05:40:19;15.20;99.90
51884;DHT22;37915;53.254;6.598;2023-06-10T05:42:44;15.20;99.90
51884;DHT22;37915;53.254;6.598;2023-06-10T05:45:10;15.20;99.90
51884;DHT22;37915;53.254;6.598;2023-06-10T05:47:36;15.30;99.90
51884;DHT22;37915;53.254;6.598;2023-06-10T05:50:02;15.40;99.90
51884;DHT22;37915;53.254;6.598;2023-06-10T05:52:28;15.50;99.90
51884;DHT22;37915;53.254;6.598;2023-06-10T05:54:54;15.60;99.90
51884;DHT22;37915;53.254;6.598;2023-06-10T05:57:20;15.60;99.90
51884;DHT22;37915;53.254;6.598;2023-06-10T05:59:45;15.70;99.90
51884;DHT22;37915;53.254;6.598;2023-06-10T06:02:11;15.80;99.90
51884;DHT22;37915;53.254;6.598;2023-06-10T06:04:37;15.80;99.90
51884;DHT22;37915;53.254;6.598;2023-06-10T06:07:02;15.90;99.90
51884;DHT22;37915;53.254;6.598;2023-06-10T06:09:29;16.00;99.90
51884;DHT22;37915;53.254;6.598;2023-06-10T06:11:54;16.00;99.90
51884;DHT22;37915;53.254;6.598;2023-06-10T06:14:20;16.10;99.90
51884;DHT22;37915;53.254;6.598;2023-06-10T06:16:46;16.20;99.90
51884;DHT22;37915;53.254;6.598;2023-06-10T06:19:11;16.30;99.90
51884;DHT22;37915;53.254;6.598;2023-06-10T06:21:37;16.40;99.90
51884;DHT22;37915;53.254;6.598;2023-06-10T06:24:03;16.50;99.90
51884;DHT22;37915;53.254;6.598;2023-06-10T06:26:29;16.50;99.90
51884;DHT22;37915;53.254;6.598;2023-06-10T06:28:54;16.60;99.90
51884;DHT22;37915;53.254;6.598;2023-06-10T06:31:20;16.70;99.90
51884;DHT22;37915;53.254;6.598;2023-06-10T06:33:46;16.10;99.90
51884;DHT22;37915;53.254;6.598;2023-06-10T06:36:11;16.80;99.90
51884;DHT22;37915;53.254;6.598;2023-06-10T06:38:37;16.90;99.90
51884;DHT22;37915;53.254;6.598;2023-06-10T06:41:03;16.90;99.90
51884;DHT22;37915;53.254;6.598;2023-06-10T06:43:29;17.00;99.90
51884;DHT22;37915;53.254;6.598;2023-06-10T06:45:58;17.10;99.90
51884;DHT22;37915;53.254;6.598;2023-06-10T06:48:24;17.20;99.90
51884;DHT22;37915;53.254;6.598;2023-06-10T06:50:49;17.20;99.90
51884;DHT22;37915;53.254;6.598;2023-06-10T06:53:15;17.40;99.90
51884;DHT22;37915;53.254;6.598;2023-06-10T06:55:41;17.50;99.90
51884;DHT22;37915;53.254;6.598;2023-06-10T06:58:06;17.50;99.90
51884;DHT22;37915;53.254;6.598;2023-06-10T07:00:32;17.60;99.90
51884;DHT22;37915;53.254;6.598;2023-06-10T07:02:58;17.70;99.90
51884;DHT22;37915;53.254;6.598;2023-06-10T07:05:24;17.80;99.90
51884;DHT22;37915;53.254;6.598;2023-06-10T07:07:55;18.00;99.90
51884;DHT22;37915;53.254;6.598;2023-06-10T07:10:25;18.10;99.90
51884;DHT22;37915;53.254;6.598;2023-06-10T07:12:51;18.20;99.90
51884;DHT22;37915;53.254;6.598;2023-06-10T07:15:17;18.30;99.90
51884;DHT22;37915;53.254;6.598;2023-06-10T07:17:42;18.40;99.90
51884;DHT22;37915;53.254;6.598;2023-06-10T07:20:09;18.50;99.90
51884;DHT22;37915;53.254;6.598;2023-06-10T07:22:34;18.60;99.90
51884;DHT22;37915;53.254;6.598;2023-06-10T07:25:00;18.70;99.90
51884;DHT22;37915;53.254;6.598;2023-06-10T07:27:26;18.80;99.90
51884;DHT22;37915;53.254;6.598;2023-06-10T07:29:51;18.90;99.90
51884;DHT22;37915;53.254;6.598;2023-06-10T07:32:18;19.00;99.90
51884;DHT22;37915;53.254;6.598;2023-06-10T07:34:46;19.20;99.90
51884;DHT22;37915;53.254;6.598;2023-06-10T07:37:11;19.30;99.90
51884;DHT22;37915;53.254;6.598;2023-06-10T07:39:37;19.40;99.90
51884;DHT22;37915;53.254;6.598;2023-06-10T07:42:03;19.40;99.90
51884;DHT22;37915;53.254;6.598;2023-06-10T07:44:29;19.50;99.90
51884;DHT22;37915;53.254;6.598;2023-06-10T07:46:54;19.60;99.90
51884;DHT22;37915;53.254;6.598;2023-06-10T07:49:20;19.60;99.90
51884;DHT22;37915;53.254;6.598;2023-06-10T07:51:46;19.70;99.90
51884;DHT22;37915;53.254;6.598;2023-06-10T07:54:11;19.70;99.90
51884;DHT22;37915;53.254;6.598;2023-06-10T07:56:38;19.80;99.90
51884;DHT22;37915;53.254;6.598;2023-06-10T07:59:03;19.80;99.90
51884;DHT22;37915;53.254;6.598;2023-06-10T08:01:29;19.80;99.90
51884;DHT22;37915;53.254;6.598;2023-06-10T08:03:56;19.90;99.90
51884;DHT22;37915;53.254;6.598;2023-06-10T08:06:22;20.00;99.90
51884;DHT22;37915;53.254;6.598;2023-06-10T08:08:48;20.20;99.90
51884;DHT22;37915;53.254;6.598;2023-06-10T08:11:13;20.40;99.90
51884;DHT22;37915;53.254;6.598;2023-06-10T08:13:39;20.50;99.90
51884;DHT22;37915;53.254;6.598;2023-06-10T08:16:05;20.60;99.90
51884;DHT22;37915;53.254;6.598;2023-06-10T08:18:31;20.70;99.90
51884;DHT22;37915;53.254;6.598;2023-06-10T08:20:57;20.70;99.90
51884;DHT22;37915;53.254;6.598;2023-06-10T08:23:23;20.80;99.90
51884;DHT22;37915;53.254;6.598;2023-06-10T08:25:48;20.90;99.90
51884;DHT22;37915;53.254;6.598;2023-06-10T08:28:14;21.00;99.90
51884;DHT22;37915;53.254;6.598;2023-06-10T08:30:40;21.00;99.90
51884;DHT22;37915;53.254;6.598;2023-06-10T08:33:06;21.20;99.90
51884;DHT22;37915;53.254;6.598;2023-06-10T08:35:31;21.30;99.90
51884;DHT22;37915;53.254;6.598;2023-06-10T08:37:57;21.40;99.90
51884;DHT22;37915;53.254;6.598;2023-06-10T08:40:23;21.60;99.90
51884;DHT22;37915;53.254;6.598;2023-06-10T08:45:28;21.70;99.90
51884;DHT22;37915;53.254;6.598;2023-06-10T08:47:57;21.90;99.90
51884;DHT22;37915;53.254;6.598;2023-06-10T08:50:23;22.10;99.90
51884;DHT22;37915;53.254;6.598;2023-06-10T08:52:52;22.30;99.90
51884;DHT22;37915;53.254;6.598;2023-06-10T08:55:27;22.30;99.90
51884;DHT22;37915;53.254;6.598;2023-06-10T08:57:55;22.40;99.90
51884;DHT22;37915;53.254;6.598;2023-06-10T09:00:21;22.30;99.90
51884;DHT22;37915;53.254;6.598;2023-06-10T09:02:46;22.30;99.90
51884;DHT22;37915;53.254;6.598;2023-06-10T09:05:13;22.40;99.90
51884;DHT22;37915;53.254;6.598;2023-06-10T09:07:39;22.50;99.90
51884;DHT22;37915;53.254;6.598;2023-06-10T09:10:05;22.50;99.90
51884;DHT22;37915;53.254;6.598;2023-06-10T09:12:33;22.50;99.90
51884;DHT22;37915;53.254;6.598;2023-06-10T09:15:01;22.60;99.90
51884;DHT22;37915;53.254;6.598;2023-06-10T09:17:27;22.70;99.90
51884;DHT22;37915;53.254;6.598;2023-06-10T09:19:53;22.70;99.90
51884;DHT22;37915;53.254;6.598;2023-06-10T09:22:24;22.90;99.90
51884;DHT22;37915;53.254;6.598;2023-06-10T09:25:01;23.10;99.90
51884;DHT22;37915;53.254;6.598;2023-06-10T09:27:30;23.30;99.90
51884;DHT22;37915;53.254;6.598;2023-06-10T09:29:57;23.40;99.90
51884;DHT22;37915;53.254;6.598;2023-06-10T09:32:23;23.50;99.90
51884;DHT22;37915;53.254;6.598;2023-06-10T09:34:49;23.60;99.90
51884;DHT22;37915;53.254;6.598;2023-06-10T09:37:23;23.50;99.90
51884;DHT22;37915;53.254;6.598;2023-06-10T09:40:06;23.60;99.90
51884;DHT22;37915;53.254;6.598;2023-06-10T09:42:33;23.70;99.90
51884;DHT22;37915;53.254;6.598;2023-06-10T09:45:01;24.20;99.90
51884;DHT22;37915;53.254;6.598;2023-06-10T09:47:27;24.10;99.90
51884;DHT22;37915;53.254;6.598;2023-06-10T09:49:52;24.10;99.90
51884;DHT22;37915;53.254;6.598;2023-06-10T09:52:25;24.20;99.90
51884;DHT22;37915;53.254;6.598;2023-06-10T09:54:51;24.20;99.90
51884;DHT22;37915;53.254;6.598;2023-06-10T09:57:18;24.10;99.90
51884;DHT22;37915;53.254;6.598;2023-06-10T09:59:45;24.20;99.90
51884;DHT22;37915;53.254;6.598;2023-06-10T10:02:17;24.30;99.90
51884;DHT22;37915;53.254;6.598;2023-06-10T10:04:43;24.50;99.90
51884;DHT22;37915;53.254;6.598;2023-06-10T10:07:10;24.60;99.90
51884;DHT22;37915;53.254;6.598;2023-06-10T10:09:40;24.80;99.90
51884;DHT22;37915;53.254;6.598;2023-06-10T10:12:10;24.90;99.90
51884;DHT22;37915;53.254;6.598;2023-06-10T10:14:37;25.00;99.90
51884;DHT22;37915;53.254;6.598;2023-06-10T10:17:09;25.10;99.90
51884;DHT22;37915;53.254;6.598;2023-06-10T10:19:48;25.30;99.90
51884;DHT22;37915;53.254;6.598;2023-06-10T10:22:22;25.40;99.90
51884;DHT22;37915;53.254;6.598;2023-06-10T10:24:52;25.60;99.90
51884;DHT22;37915;53.254;6.598;2023-06-10T10:27:25;25.80;99.90
51884;DHT22;37915;53.254;6.598;2023-06-10T10:29:54;25.80;99.90
51884;DHT22;37915;53.254;6.598;2023-06-10T10:32:24;25.80;99.90
51884;DHT22;37915;53.254;6.598;2023-06-10T10:37:32;25.90;99.90
51884;DHT22;37915;53.254;6.598;2023-06-10T10:40:00;26.00;99.90
51884;DHT22;37915;53.254;6.598;2023-06-10T10:42:27;26.10;99.90
51884;DHT22;37915;53.254;6.598;2023-06-10T10:44:53;26.30;99.90
51884;DHT22;37915;53.254;6.598;2023-06-10T10:47:21;26.50;99.90
51884;DHT22;37915;53.254;6.598;2023-06-10T10:49:51;26.60;99.90
51884;DHT22;37915;53.254;6.598;2023-06-10T10:52:18;26.60;99.90
51884;DHT22;37915;53.254;6.598;2023-06-10T10:54:46;26.60;99.90
51884;DHT22;37915;53.254;6.598;2023-06-10T10:59:59;26.80;99.90
51884;DHT22;37915;53.254;6.598;2023-06-10T11:02:44;26.90;99.90
51884;DHT22;37915;53.254;6.598;2023-06-10T11:05:15;26.80;99.90
51884;DHT22;37915;53.254;6.598;2023-06-10T11:07:52;26.70;99.90
51884;DHT22;37915;53.254;6.598;2023-06-10T11:10:29;26.70;99.90
51884;DHT22;37915;53.254;6.598;2023-06-10T11:12:56;26.70;99.90
51884;DHT22;37915;53.254;6.598;2023-06-10T11:15:29;26.70;99.90
51884;DHT22;37915;53.254;6.598;2023-06-10T11:23:40;26.80;99.90
51884;DHT22;37915;53.254;6.598;2023-06-10T11:28:38;26.80;99.90
51884;DHT22;37915;53.254;6.598;2023-06-10T11:31:04;26.80;99.90
51884;DHT22;37915;53.254;6.598;2023-06-10T11:33:31;26.90;99.90
51884;DHT22;37915;53.254;6.598;2023-06-10T11:35:57;27.00;99.90
51884;DHT22;37915;53.254;6.598;2023-06-10T11:38:24;27.00;99.90
51884;DHT22;37915;53.254;6.598;2023-06-10T11:40:50;27.10;99.90
51884;DHT22;37915;53.254;6.598;2023-06-10T11:43:19;27.20;99.90
51884;DHT22;37915;53.254;6.598;2023-06-10T11:45:45;27.20;99.90
51884;DHT22;37915;53.254;6.598;2023-06-10T11:48:14;27.20;99.90
51884;DHT22;37915;53.254;6.598;2023-06-10T11:50:40;27.20;99.90
51884;DHT22;37915;53.254;6.598;2023-06-10T11:53:08;27.30;99.90
51884;DHT22;37915;53.254;6.598;2023-06-10T11:55:45;27.40;99.90
51884;DHT22;37915;53.254;6.598;2023-06-10T11:58:18;27.30;99.90
51884;DHT22;37915;53.254;6.598;2023-06-10T12:00:52;27.30;99.90
51884;DHT22;37915;53.254;6.598;2023-06-10T12:03:19;27.30;99.90
51884;DHT22;37915;53.254;6.598;2023-06-10T12:08:21;27.50;99.90
51884;DHT22;37915;53.254;6.598;2023-06-10T12:10:46;27.60;99.90
51884;DHT22;37915;53.254;6.598;2023-06-10T12:13:12;27.70;99.90
51884;DHT22;37915;53.254;6.598;2023-06-10T12:15:38;27.80;99.90
51884;DHT22;37915;53.254;6.598;2023-06-10T12:18:04;27.70;99.90
51884;DHT22;37915;53.254;6.598;2023-06-10T12:20:31;27.80;99.90
51884;DHT22;37915;53.254;6.598;2023-06-10T12:23:00;28.00;99.90
51884;DHT22;37915;53.254;6.598;2023-06-10T12:25:28;28.00;99.90
51884;DHT22;37915;53.254;6.598;2023-06-10T12:27:57;28.10;99.90
51884;DHT22;37915;53.254;6.598;2023-06-10T12:30:25;28.20;99.90
51884;DHT22;37915;53.254;6.598;2023-06-10T12:32:52;28.30;99.90
51884;DHT22;37915;53.254;6.598;2023-06-10T12:35:20;28.40;99.90
51884;DHT22;37915;53.254;6.598;2023-06-10T12:38:01;28.50;99.90
51884;DHT22;37915;53.254;6.598;2023-06-10T12:40:29;28.60;99.90
51884;DHT22;37915;53.254;6.598;2023-06-10T12:42:55;28.70;99.90
51884;DHT22;37915;53.254;6.598;2023-06-10T12:45:31;28.70;99.90
51884;DHT22;37915;53.254;6.598;2023-06-10T12:48:24;28.60;99.90
51884;DHT22;37915;53.254;6.598;2023-06-10T12:50:58;28.60;99.90
51884;DHT22;37915;53.254;6.598;2023-06-10T12:53:25;28.50;99.90
51884;DHT22;37915;53.254;6.598;2023-06-10T12:55:54;28.50;99.90
51884;DHT22;37915;53.254;6.598;2023-06-10T12:58:20;28.60;99.90
51884;DHT22;37915;53.254;6.598;2023-06-10T13:00:47;28.60;99.90
51884;DHT22;37915;53.254;6.598;2023-06-10T13:03:14;28.70;99.90
51884;DHT22;37915;53.254;6.598;2023-06-10T13:05:40;28.50;99.90
51884;DHT22;37915;53.254;6.598;2023-06-10T13:08:07;28.70;99.90
51884;DHT22;37915;53.254;6.598;2023-06-10T13:10:33;28.70;99.90
51884;DHT22;37915;53.254;6.598;2023-06-10T13:13:01;28.80;99.90
51884;DHT22;37915;53.254;6.598;2023-06-10T13:15:27;28.90;99.90
51884;DHT22;37915;53.254;6.598;2023-06-10T13:17:53;28.90;99.90
51884;DHT22;37915;53.254;6.598;2023-06-10T13:20:19;28.90;99.90
51884;DHT22;37915;53.254;6.598;2023-06-10T13:22:46;28.90;99.90
51884;DHT22;37915;53.254;6.598;2023-06-10T13:25:13;29.00;99.90
51884;DHT22;37915;53.254;6.598;2023-06-10T13:27:39;29.00;99.90
51884;DHT22;37915;53.254;6.598;2023-06-10T13:30:09;29.00;99.90
51884;DHT22;37915;53.254;6.598;2023-06-10T13:32:36;29.00;99.90
51884;DHT22;37915;53.254;6.598;2023-06-10T13:35:02;29.00;99.90
51884;DHT22;37915;53.254;6.598;2023-06-10T13:37:28;29.00;99.90
51884;DHT22;37915;53.254;6.598;2023-06-10T13:39:54;29.10;99.90
51884;DHT22;37915;53.254;6.598;2023-06-10T13:42:20;29.10;99.90
51884;DHT22;37915;53.254;6.598;2023-06-10T13:44:47;29.20;99.90
51884;DHT22;37915;53.254;6.598;2023-06-10T13:47:14;29.30;99.90
51884;DHT22;37915;53.254;6.598;2023-06-10T13:49:40;29.30;99.90
51884;DHT22;37915;53.254;6.598;2023-06-10T13:52:07;29.20;99.90
51884;DHT22;37915;53.254;6.598;2023-06-10T13:54:33;29.20;99.90
51884;DHT22;37915;53.254;6.598;2023-06-10T13:57:01;29.40;99.90
51884;DHT22;37915;53.254;6.598;2023-06-10T13:59:27;29.60;99.90
51884;DHT22;37915;53.254;6.598;2023-06-10T14:01:53;29.80;99.90
51884;DHT22;37915;53.254;6.598;2023-06-10T14:04:18;29.80;99.90
51884;DHT22;37915;53.254;6.598;2023-06-10T14:06:44;29.80;99.90
51884;DHT22;37915;53.254;6.598;2023-06-10T14:09:12;29.80;99.90
51884;DHT22;37915;53.254;6.598;2023-06-10T14:11:38;29.80;99.90
51884;DHT22;37915;53.254;6.598;2023-06-10T14:14:04;29.90;99.90
51884;DHT22;37915;53.254;6.598;2023-06-10T14:16:29;29.90;99.90
51884;DHT22;37915;53.254;6.598;2023-06-10T14:18:55;29.60;99.90
51884;DHT22;37915;53.254;6.598;2023-06-10T14:21:21;29.70;99.80
51884;DHT22;37915;53.254;6.598;2023-06-10T14:23:46;29.60;99.90
51884;DHT22;37915;53.254;6.598;2023-06-10T14:26:14;29.50;99.70
51884;DHT22;37915;53.254;6.598;2023-06-10T14:28:40;29.30;99.90
51884;DHT22;37915;53.254;6.598;2023-06-10T14:31:05;29.20;99.80
51884;DHT22;37915;53.254;6.598;2023-06-10T14:33:32;29.10;99.90
51884;DHT22;37915;53.254;6.598;2023-06-10T14:35:58;28.80;99.80
51884;DHT22;37915;53.254;6.598;2023-06-10T14:38:24;28.90;99.90
51884;DHT22;37915;53.254;6.598;2023-06-10T14:40:50;28.90;99.90
51884;DHT22;37915;53.254;6.598;2023-06-10T14:43:15;29.10;99.90
51884;DHT22;37915;53.254;6.598;2023-06-10T14:45:41;29.10;99.80
51884;DHT22;37915;53.254;6.598;2023-06-10T14:48:07;29.10;99.90
51884;DHT22;37915;53.254;6.598;2023-06-10T14:50:37;29.10;99.90
51884;DHT22;37915;53.254;6.598;2023-06-10T14:53:03;29.10;98.20
51884;DHT22;37915;53.254;6.598;2023-06-10T14:55:29;28.90;98.80
51884;DHT22;37915;53.254;6.598;2023-06-10T14:57:54;28.80;98.70
51884;DHT22;37915;53.254;6.598;2023-06-10T15:00:21;28.90;98.40
51884;DHT22;37915;53.254;6.598;2023-06-10T15:02:50;28.80;98.20
51884;DHT22;37915;53.254;6.598;2023-06-10T15:05:16;28.80;98.00
51884;DHT22;37915;53.254;6.598;2023-06-10T15:07:43;28.80;98.00
51884;DHT22;37915;53.254;6.598;2023-06-10T15:10:09;28.70;98.10
51884;DHT22;37915;53.254;6.598;2023-06-10T15:12:35;28.90;98.00
51884;DHT22;37915;53.254;6.598;2023-06-10T15:15:01;29.10;97.70
51884;DHT22;37915;53.254;6.598;2023-06-10T15:17:28;29.00;97.50
51884;DHT22;37915;53.254;6.598;2023-06-10T15:19:54;28.90;97.10
51884;DHT22;37915;53.254;6.598;2023-06-10T15:22:20;28.60;96.70
51884;DHT22;37915;53.254;6.598;2023-06-10T15:24:46;28.40;96.90
51884;DHT22;37915;53.254;6.598;2023-06-10T15:27:11;28.30;97.10
51884;DHT22;37915;53.254;6.598;2023-06-10T15:29:37;28.30;97.10
51884;DHT22;37915;53.254;6.598;2023-06-10T15:32:03;28.40;97.00
51884;DHT22;37915;53.254;6.598;2023-06-10T15:34:29;28.30;97.00
51884;DHT22;37915;53.254;6.598;2023-06-10T15:36:55;28.20;97.30
51884;DHT22;37915;53.254;6.598;2023-06-10T15:39:21;28.00;97.50
51884;DHT22;37915;53.254;6.598;2023-06-10T15:41:46;28.20;97.30
51884;DHT22;37915;53.254;6.598;2023-06-10T15:44:12;28.20;97.00
51884;DHT22;37915;53.254;6.598;2023-06-10T15:46:40;28.40;96.60
51884;DHT22;37915;53.254;6.598;2023-06-10T15:49:06;28.50;96.40
51884;DHT22;37915;53.254;6.598;2023-06-10T15:51:31;28.70;95.90